In Rescue
 
Open Full Screen Window  High Contrast Mode
Wind Gusting 00 knots
10
November 19, 2019 12:42 PM CST
Weather Information
Wind Direction
  290 °
Wind Speed
  10 kt (12 mph)
Wind Gust
  00 kt (0 mph)
Altimeter
29.84 in
Visibility
10 SM
Temperature
07° C
45° F
Dewpoint
01° C
34° F
Humidity
66%
1hr Rain Fall
00.00 in.
24hr Rain Fall
00.01 in.
Sky Condition
Scattered @ 3,000 ft
VFR

METAR KJKJ 191842Z AUTO 29010KT 10SM SCT030 07/01 A2984 RMK AO2

FAA Disclaimer: The data displayed is for advisory purposes only and is not to be used for flight planning or operations.